createdAt,value
2022-09-03T00:00:02.108Z,95569.34
2022-09-03T00:02:15.334Z,95535.84
2022-09-03T00:04:26.551Z,95288.34
2022-09-03T00:06:36.304Z,95553.22
2022-09-03T00:08:47.512Z,95539.66
2022-09-03T00:10:56.350Z,95527.19
2022-09-03T00:13:03.959Z,95538.81
2022-09-03T00:15:10.672Z,95532.50
2022-09-03T00:17:17.105Z,95528.00
2022-09-03T00:19:25.557Z,95527.84
2022-09-03T00:21:38.680Z,95524.00
2022-09-03T00:23:47.836Z,95536.50
2022-09-03T00:25:55.820Z,95530.56
2022-09-03T00:27:59.987Z,95573.34
2022-09-03T00:30:05.915Z,95532.75
2022-09-03T00:32:14.637Z,95358.97
2022-09-03T00:34:25.516Z,95539.56
2022-09-03T00:36:36.303Z,95540.06
2022-09-03T00:38:39.449Z,95539.50
2022-09-03T00:41:03.007Z,95436.72
2022-09-03T00:43:16.860Z,95542.84
2022-09-03T00:45:36.248Z,95557.88
2022-09-03T00:47:51.186Z,95331.56
2022-09-03T00:50:03.079Z,95538.28
2022-09-03T00:52:19.874Z,95535.25
2022-09-03T00:54:32.916Z,95530.34
2022-09-03T00:56:46.661Z,95518.72
2022-09-03T00:59:01.643Z,95521.44
2022-09-03T01:01:14.542Z,95528.75
2022-09-03T01:03:27.360Z,95526.03
2022-09-03T01:05:48.340Z,95370.06
2022-09-03T01:08:01.219Z,95406.53
2022-09-03T01:10:16.613Z,95388.34
2022-09-03T01:12:33.440Z,95313.91
2022-09-03T01:14:46.851Z,95518.41
2022-09-03T01:16:55.324Z,95447.84
2022-09-03T01:19:08.998Z,95527.88
2022-09-03T01:21:37.101Z,95525.66
2022-09-03T01:23:55.862Z,95520.72
2022-09-03T01:26:11.879Z,95379.91
2022-09-03T01:28:31.011Z,95533.59
2022-09-03T01:30:41.394Z,95522.09
2022-09-03T01:32:50.118Z,95532.16
2022-09-03T01:35:02.603Z,95541.59
2022-09-03T01:37:15.173Z,95635.59
2022-09-03T01:39:28.269Z,95362.97
2022-09-03T01:41:57.132Z,95356.03
2022-09-03T01:44:11.189Z,95536.03
2022-09-03T01:46:20.585Z,95547.31
2022-09-03T01:48:42.375Z,95087.41
2022-09-03T01:50:51.419Z,95539.75
2022-09-03T01:53:00.543Z,95352.22
2022-09-03T01:55:16.362Z,95535.53
2022-09-03T01:57:44.276Z,95401.81
2022-09-03T01:59:54.579Z,95549.00
2022-09-03T02:02:03.612Z,95542.50
2022-09-03T02:04:19.258Z,95542.50
2022-09-03T02:06:22.412Z,95534.91
2022-09-03T02:08:25.410Z,95532.09
2022-09-03T02:10:33.074Z,95537.72
2022-09-03T02:12:38.551Z,95526.66
2022-09-03T02:14:42.021Z,95531.81
2022-09-03T02:16:46.517Z,95150.38
2022-09-03T02:18:52.669Z,95479.19
2022-09-03T02:20:56.737Z,95367.22
2022-09-03T02:23:00.690Z,95533.75
2022-09-03T02:25:03.874Z,95264.38
2022-09-03T02:27:06.854Z,95525.50
2022-09-03T02:29:10.073Z,95520.69
2022-09-03T02:31:13.081Z,95462.22
2022-09-03T02:33:17.684Z,95549.25
2022-09-03T02:35:20.611Z,95537.75
2022-09-03T02:37:24.183Z,95536.94
2022-09-03T02:39:28.850Z,95542.88
2022-09-03T02:41:32.091Z,95549.75
2022-09-03T02:43:40.862Z,94646.72
2022-09-03T02:45:48.148Z,95436.66
2022-09-03T02:47:55.621Z,95546.03
2022-09-03T02:49:59.917Z,95547.25
2022-09-03T02:52:06.340Z,95541.06
2022-09-03T02:54:10.626Z,95472.75
2022-09-03T02:56:14.021Z,95546.44
2022-09-03T02:58:16.923Z,95574.72
2022-09-03T03:00:19.898Z,95549.75
2022-09-03T03:02:23.017Z,95545.13
2022-09-03T03:04:26.030Z,95263.19
2022-09-03T03:06:30.291Z,95550.56
2022-09-03T03:08:35.080Z,95282.56
2022-09-03T03:10:38.198Z,95540.63
2022-09-03T03:12:40.960Z,95548.34
2022-09-03T03:14:43.816Z,95540.00
2022-09-03T03:16:46.691Z,95366.41
2022-09-03T03:18:49.740Z,95636.22
2022-09-03T03:20:52.727Z,95292.31
2022-09-03T03:22:57.286Z,95540.31
2022-09-03T03:25:00.166Z,95544.94
2022-09-03T03:27:07.431Z,95543.03
2022-09-03T03:29:17.272Z,95541.13
2022-09-03T03:31:22.271Z,95544.44
2022-09-03T03:33:25.272Z,95554.69
2022-09-03T03:35:28.297Z,95549.75
2022-09-03T03:37:32.108Z,95560.03
2022-09-03T03:39:36.748Z,95097.28
2022-09-03T03:41:40.609Z,95554.88
2022-09-03T03:43:43.649Z,95557.03
2022-09-03T03:45:57.820Z,95554.09
2022-09-03T03:48:01.073Z,95533.72
2022-09-03T03:50:05.486Z,95422.75
2022-09-03T03:52:08.484Z,95567.47
2022-09-03T03:54:11.422Z,95576.66
2022-09-03T03:56:18.920Z,95569.09
2022-09-03T03:58:21.831Z,95572.94
2022-09-03T04:00:24.860Z,95563.28
2022-09-03T04:02:27.736Z,95570.94
2022-09-03T04:04:30.813Z,95559.88
2022-09-03T04:06:33.926Z,95564.69
2022-09-03T04:08:38.080Z,95559.25
2022-09-03T04:10:40.889Z,95555.72
2022-09-03T04:12:45.186Z,95441.09
2022-09-03T04:14:48.192Z,95311.69
2022-09-03T04:16:51.520Z,95043.03
2022-09-03T04:18:56.368Z,95559.66
2022-09-03T04:21:04.979Z,95555.94
2022-09-03T04:23:08.375Z,95558.34
2022-09-03T04:25:11.265Z,95541.91
2022-09-03T04:27:14.360Z,95241.06
2022-09-03T04:29:19.071Z,95541.78
2022-09-03T04:31:22.659Z,95546.59
2022-09-03T04:33:25.548Z,95226.59
2022-09-03T04:35:30.158Z,95412.41
2022-09-03T04:37:34.050Z,94956.00
2022-09-03T04:39:37.635Z,95553.03
2022-09-03T04:41:40.881Z,95555.63
2022-09-03T04:43:44.285Z,95554.22
2022-09-03T04:45:51.718Z,95558.75
2022-09-03T04:47:59.182Z,95506.56
2022-09-03T04:50:02.148Z,95566.66
2022-09-03T04:52:05.033Z,95556.00
2022-09-03T04:54:09.263Z,95191.56
2022-09-03T04:56:16.865Z,95562.03
2022-09-03T04:58:19.772Z,95565.25
2022-09-03T05:00:25.510Z,95489.38
2022-09-03T05:02:29.717Z,95569.88
2022-09-03T05:04:32.570Z,95557.81
2022-09-03T05:06:37.327Z,95569.00
2022-09-03T05:08:40.440Z,95565.66
2022-09-03T05:10:43.213Z,95569.50
2022-09-03T05:12:46.012Z,95236.31
2022-09-03T05:14:48.858Z,95558.53
2022-09-03T05:16:52.599Z,95460.94
2022-09-03T05:19:00.601Z,95572.72
2022-09-03T05:21:05.641Z,95562.25
2022-09-03T05:23:08.689Z,95574.72
2022-09-03T05:25:11.440Z,95317.09
2022-09-03T05:27:16.855Z,95570.19
2022-09-03T05:29:20.137Z,95570.69
2022-09-03T05:31:24.035Z,95486.28
2022-09-03T05:33:28.013Z,95577.56
2022-09-03T05:35:32.665Z,95577.25
2022-09-03T05:37:35.561Z,95575.31
2022-09-03T05:39:38.453Z,95571.31
2022-09-03T05:41:41.189Z,95573.53
2022-09-03T05:43:44.895Z,95577.34
2022-09-03T05:45:47.822Z,95573.22
2022-09-03T05:47:50.569Z,95585.41
2022-09-03T05:49:53.259Z,95579.34
2022-09-03T05:51:57.646Z,95577.75
2022-09-03T05:54:00.790Z,95581.47
2022-09-03T05:56:06.209Z,95581.16
2022-09-03T05:58:09.009Z,95582.16
2022-09-03T06:00:19.632Z,95585.16
2022-09-03T06:02:23.155Z,95583.19
2022-09-03T06:04:26.128Z,95582.97
2022-09-03T06:06:31.598Z,95451.09
2022-09-03T06:08:39.141Z,95586.16
2022-09-03T06:10:42.031Z,95589.88
2022-09-03T06:12:49.792Z,95579.13
2022-09-03T06:14:52.571Z,95586.16
2022-09-03T06:16:56.969Z,95593.22
2022-09-03T06:19:00.674Z,95586.59
2022-09-03T06:21:05.091Z,95589.38
2022-09-03T06:23:07.832Z,95582.34
2022-09-03T06:25:12.197Z,95587.16
2022-09-03T06:27:15.222Z,95589.78
2022-09-03T06:29:19.113Z,95589.19
2022-09-03T06:31:22.732Z,95581.91
2022-09-03T06:33:26.023Z,95587.44
2022-09-03T06:35:28.815Z,95097.13
2022-09-03T06:37:34.110Z,95582.38
2022-09-03T06:39:36.881Z,95574.22
2022-09-03T06:41:41.044Z,95572.69
2022-09-03T06:43:45.984Z,95097.66
2022-09-03T06:45:57.592Z,95574.06
2022-09-03T06:48:00.445Z,95583.91
2022-09-03T06:50:03.408Z,95585.31
2022-09-03T06:52:06.189Z,95588.84
2022-09-03T06:54:10.914Z,95578.78
2022-09-03T06:56:15.019Z,95599.09
2022-09-03T06:58:19.282Z,95505.44
2022-09-03T07:00:23.460Z,95580.94
2022-09-03T07:02:26.400Z,95575.00
2022-09-03T07:04:29.534Z,95576.22
2022-09-03T07:06:34.072Z,95575.69
2022-09-03T07:08:37.639Z,95481.22
2022-09-03T07:10:40.753Z,95413.69
2022-09-03T07:12:43.485Z,95537.75
2022-09-03T07:14:51.243Z,95581.25
2022-09-03T07:16:54.117Z,95322.09
2022-09-03T07:18:57.688Z,95253.34
2022-09-03T07:21:01.431Z,95569.63
2022-09-03T07:23:04.326Z,95331.56
2022-09-03T07:25:07.753Z,95577.66
2022-09-03T07:27:14.835Z,95568.53
2022-09-03T07:29:20.174Z,95574.16
2022-09-03T07:31:27.145Z,95577.06
2022-09-03T07:33:33.635Z,95576.59
2022-09-03T07:35:37.916Z,95512.56
2022-09-03T07:37:42.659Z,95265.69
2022-09-03T07:39:46.784Z,95213.28
2022-09-03T07:41:50.196Z,95598.25
2022-09-03T07:43:53.654Z,95597.63
2022-09-03T07:45:58.021Z,95586.38
2022-09-03T07:48:02.258Z,95593.47
2022-09-03T07:50:06.258Z,95583.81
2022-09-03T07:52:11.911Z,95589.91
2022-09-03T07:54:15.011Z,95595.38
2022-09-03T07:56:18.132Z,95600.47
2022-09-03T07:58:24.049Z,95598.38
2022-09-03T08:00:27.281Z,95597.88
2022-09-03T08:02:32.106Z,95587.59
2022-09-03T08:04:36.316Z,95602.84
2022-09-03T08:06:40.319Z,95600.44
2022-09-03T08:08:45.165Z,95604.59
2022-09-03T08:10:47.952Z,95596.56
2022-09-03T08:12:50.969Z,95597.56
2022-09-03T08:14:53.761Z,95609.16
2022-09-03T08:16:56.561Z,95601.28
2022-09-03T08:18:59.811Z,95480.16
2022-09-03T08:21:05.123Z,95597.50
2022-09-03T08:23:07.883Z,95596.06
2022-09-03T08:25:11.800Z,95425.09
2022-09-03T08:27:16.602Z,95603.53
2022-09-03T08:29:19.528Z,95607.19
2022-09-03T08:31:25.179Z,95616.22
2022-09-03T08:33:38.074Z,95620.41
2022-09-03T08:35:40.881Z,95621.16
2022-09-03T08:37:45.248Z,95355.34
2022-09-03T08:39:48.207Z,95616.69
2022-09-03T08:42:16.246Z,95618.00
2022-09-03T08:44:26.802Z,95623.03
2022-09-03T08:46:41.097Z,95625.16
2022-09-03T08:48:44.503Z,95625.84
2022-09-03T08:50:56.128Z,95645.19
2022-09-03T08:53:07.574Z,95578.56
2022-09-03T08:55:21.437Z,95633.97
2022-09-03T08:57:25.719Z,95642.09
2022-09-03T08:59:32.893Z,95259.06
2022-09-03T09:01:48.506Z,95625.81
2022-09-03T09:04:03.050Z,95239.50
2022-09-03T09:06:18.029Z,95280.09
2022-09-03T09:08:33.910Z,95636.19
2022-09-03T09:10:44.357Z,95626.72
2022-09-03T09:12:59.725Z,95633.09
2022-09-03T09:15:09.656Z,95632.50
2022-09-03T09:17:28.125Z,95616.50
2022-09-03T09:19:44.213Z,95619.56
2022-09-03T09:21:50.869Z,95618.97
2022-09-03T09:24:02.897Z,95622.75
2022-09-03T09:26:10.334Z,95622.41
2022-09-03T09:28:18.271Z,95613.13
2022-09-03T09:30:21.653Z,95623.88
2022-09-03T09:32:24.523Z,95626.63
2022-09-03T09:34:27.720Z,95629.38
2022-09-03T09:36:31.742Z,95632.25
2022-09-03T09:38:37.413Z,95639.66
2022-09-03T09:40:45.066Z,95645.22
2022-09-03T09:42:48.366Z,95643.50
2022-09-03T09:44:51.274Z,95638.28
2022-09-03T09:47:06.830Z,95644.28
2022-09-03T09:49:28.228Z,95635.91
2022-09-03T09:51:32.522Z,95645.25
2022-09-03T09:53:36.428Z,95457.78
2022-09-03T09:55:52.238Z,95636.41
2022-09-03T09:58:05.501Z,95625.66
2022-09-03T10:00:12.877Z,95610.97
2022-09-03T10:02:22.429Z,95615.03
2022-09-03T10:04:33.152Z,95461.38
2022-09-03T10:06:55.585Z,95622.13
2022-09-03T10:09:07.408Z,95625.91
2022-09-03T10:11:11.876Z,95631.88
2022-09-03T10:13:19.423Z,95634.47
2022-09-03T10:15:29.066Z,95634.44
2022-09-03T10:17:41.365Z,95628.97
2022-09-03T10:20:11.307Z,95521.31
2022-09-03T10:22:20.579Z,95610.91
2022-09-03T10:24:40.176Z,95625.03
2022-09-03T10:26:46.060Z,95622.47
2022-09-03T10:28:56.038Z,95619.13
2022-09-03T10:31:22.700Z,95495.44
2022-09-03T10:33:32.794Z,95626.06
2022-09-03T10:35:43.202Z,95556.53
2022-09-03T10:37:51.928Z,95624.66
2022-09-03T10:40:16.736Z,95616.88
2022-09-03T10:42:39.820Z,95610.69
2022-09-03T10:44:58.651Z,95617.31
2022-09-03T10:47:08.773Z,95612.75
2022-09-03T10:49:40.734Z,95614.38
2022-09-03T10:51:49.559Z,95622.41
2022-09-03T10:54:11.905Z,95614.88
2022-09-03T10:56:18.437Z,95629.72
2022-09-03T10:58:38.101Z,95506.44
2022-09-03T11:00:48.324Z,95635.03
2022-09-03T11:03:10.355Z,95643.59
2022-09-03T11:05:18.128Z,95638.00
2022-09-03T11:07:24.364Z,95642.00
2022-09-03T11:09:34.932Z,95643.78
2022-09-03T11:11:43.427Z,95636.69
2022-09-03T11:13:49.801Z,95634.16
2022-09-03T11:15:56.755Z,95482.72
2022-09-03T11:18:04.526Z,95615.22
2022-09-03T11:20:16.052Z,95632.91
2022-09-03T11:22:20.747Z,95593.59
2022-09-03T11:24:27.348Z,95626.53
2022-09-03T11:26:31.432Z,95639.03
2022-09-03T11:28:45.332Z,95663.69
2022-09-03T11:30:58.725Z,95689.50
2022-09-03T11:33:07.713Z,95676.00
2022-09-03T11:35:16.449Z,95701.63
2022-09-03T11:37:22.348Z,95714.56
2022-09-03T11:39:35.600Z,95701.63
2022-09-03T11:41:38.641Z,95695.84
2022-09-03T11:43:42.433Z,95716.66
2022-09-03T11:45:45.289Z,95733.00
2022-09-03T11:47:50.753Z,95747.47
2022-09-03T11:50:05.643Z,95676.69
2022-09-03T11:52:10.825Z,95416.53
2022-09-03T11:54:27.210Z,95549.16
2022-09-03T11:56:31.035Z,95722.09
2022-09-03T11:58:36.199Z,95715.91
2022-09-03T12:00:44.822Z,95706.06
2022-09-03T12:02:58.152Z,95714.94
2022-09-03T12:05:20.153Z,95683.91
2022-09-03T12:07:44.009Z,95698.81
2022-09-03T12:09:57.791Z,95699.03
2022-09-03T12:12:13.339Z,95699.81
2022-09-03T12:14:24.624Z,95692.00
2022-09-03T12:16:42.372Z,95692.78
2022-09-03T12:18:52.842Z,95697.34
2022-09-03T12:21:04.677Z,95692.78
2022-09-03T12:23:08.525Z,95688.38
2022-09-03T12:25:13.125Z,95689.56
2022-09-03T12:27:22.572Z,95690.09
2022-09-03T12:29:28.187Z,95689.78
2022-09-03T12:31:45.166Z,95698.38
2022-09-03T12:33:51.401Z,95691.84
2022-09-03T12:35:58.694Z,95692.41
2022-09-03T12:38:08.476Z,95686.19
2022-09-03T12:40:21.638Z,95690.59
2022-09-03T12:42:28.416Z,95692.06
2022-09-03T12:44:33.637Z,95685.53
2022-09-03T12:46:36.999Z,95683.38
2022-09-03T12:48:43.579Z,95686.09
2022-09-03T12:50:56.512Z,95683.38
2022-09-03T12:53:02.689Z,95686.25
2022-09-03T12:55:10.009Z,95697.03
2022-09-03T12:57:18.812Z,95701.19
2022-09-03T12:59:23.059Z,95630.53
2022-09-03T13:01:31.561Z,95700.22
2022-09-03T13:03:45.279Z,95703.59
2022-09-03T13:05:53.872Z,95705.69
2022-09-03T13:08:00.577Z,95710.81
2022-09-03T13:10:06.877Z,95706.47
2022-09-03T13:12:22.826Z,95709.19
2022-09-03T13:14:26.406Z,95712.25
2022-09-03T13:17:02.114Z,95715.63
2022-09-03T13:19:10.707Z,95698.47
2022-09-03T13:21:23.432Z,95711.69
2022-09-03T13:23:43.091Z,95704.63
2022-09-03T13:25:54.421Z,95706.03
2022-09-03T13:28:09.257Z,95712.06
2022-09-03T13:30:17.065Z,95719.47
2022-09-03T13:32:31.694Z,95699.50
2022-09-03T13:34:41.459Z,95692.00
2022-09-03T13:36:52.656Z,95602.84
2022-09-03T13:39:03.157Z,95698.41
2022-09-03T13:41:15.504Z,95698.16
2022-09-03T13:43:28.342Z,95704.38
2022-09-03T13:45:38.252Z,95699.13
2022-09-03T13:48:00.179Z,95696.00
2022-09-03T13:50:27.030Z,95696.28
2022-09-03T13:52:42.437Z,95672.59
2022-09-03T13:54:52.549Z,95584.28
2022-09-03T13:57:00.554Z,95672.50
2022-09-03T13:59:09.726Z,95663.78
2022-09-03T14:01:20.649Z,95663.66
2022-09-03T14:03:33.314Z,95514.41
2022-09-03T14:05:48.503Z,95658.91
2022-09-03T14:08:07.663Z,95649.22
2022-09-03T14:10:22.425Z,95654.72
2022-09-03T14:12:37.626Z,95529.84
2022-09-03T14:14:50.181Z,95643.03
2022-09-03T14:17:00.817Z,95636.59
2022-09-03T14:19:08.010Z,95645.09
2022-09-03T14:21:18.135Z,95647.09
2022-09-03T14:23:34.340Z,95643.47
2022-09-03T14:25:37.471Z,95416.19
2022-09-03T14:27:40.578Z,95642.53
2022-09-03T14:29:54.078Z,95639.69
2022-09-03T14:32:25.421Z,95632.22
2022-09-03T14:34:39.600Z,95642.28
2022-09-03T14:36:51.458Z,95633.53
2022-09-03T14:39:30.834Z,95646.75
2022-09-03T14:42:02.711Z,95658.31
2022-09-03T14:44:34.794Z,95656.09
2022-09-03T14:46:51.557Z,95629.53
2022-09-03T14:49:22.786Z,95553.91
2022-09-03T14:51:39.612Z,95468.75
2022-09-03T14:54:15.918Z,95647.03
2022-09-03T14:56:34.522Z,95653.31
2022-09-03T14:58:48.485Z,95654.91
2022-09-03T15:00:59.217Z,95651.09
2022-09-03T15:03:20.249Z,95526.09
2022-09-03T15:05:40.900Z,95651.25
2022-09-03T15:07:47.438Z,95567.69
2022-09-03T15:10:02.435Z,95652.50
2022-09-03T15:12:17.436Z,95647.75
2022-09-03T15:14:27.214Z,95654.47
2022-09-03T15:16:41.176Z,95660.13
2022-09-03T15:19:04.977Z,95661.75
2022-09-03T15:21:22.584Z,95618.19
2022-09-03T15:23:30.163Z,95677.94
2022-09-03T15:25:46.346Z,95662.47
2022-09-03T15:28:03.037Z,95563.44
2022-09-03T15:30:09.848Z,95614.09
2022-09-03T15:32:26.588Z,95664.25
2022-09-03T15:34:47.445Z,95666.44
2022-09-03T15:36:53.769Z,95641.06
2022-09-03T15:39:01.141Z,95564.06
2022-09-03T15:41:09.057Z,95672.63
2022-09-03T15:43:21.289Z,95668.97
2022-09-03T15:45:35.605Z,95535.00
2022-09-03T15:47:52.317Z,95664.28
2022-09-03T15:50:02.632Z,95613.94
2022-09-03T15:52:17.526Z,95678.28
2022-09-03T15:54:31.811Z,95665.53
2022-09-03T15:56:40.772Z,95671.22
2022-09-03T15:58:53.882Z,95628.31
2022-09-03T16:01:01.935Z,95675.25
2022-09-03T16:03:20.450Z,95677.31
2022-09-03T16:05:39.400Z,95656.19
2022-09-03T16:08:07.760Z,95666.28
2022-09-03T16:10:25.291Z,95664.25
2022-09-03T16:12:36.171Z,95665.91
2022-09-03T16:14:47.215Z,95587.84
2022-09-03T16:17:00.452Z,95672.81
2022-09-03T16:19:11.942Z,95665.06
2022-09-03T16:21:25.798Z,95666.75
2022-09-03T16:23:35.001Z,95666.19
2022-09-03T16:25:49.758Z,95661.63
2022-09-03T16:28:07.665Z,95660.28
2022-09-03T16:30:22.743Z,95663.59
2022-09-03T16:32:40.394Z,95662.53
2022-09-03T16:34:56.822Z,95663.53
2022-09-03T16:37:11.040Z,95659.06
2022-09-03T16:39:26.134Z,95598.97
2022-09-03T16:41:35.618Z,95656.97
2022-09-03T16:43:46.128Z,95589.69
2022-09-03T16:46:01.039Z,95654.69
2022-09-03T16:48:18.227Z,95656.78
2022-09-03T16:50:32.555Z,95662.34
2022-09-03T16:52:48.123Z,95656.41
2022-09-03T16:55:08.665Z,95648.41
2022-09-03T16:57:24.907Z,95660.00
2022-09-03T16:59:40.190Z,95667.91
2022-09-03T17:02:01.599Z,95665.94
2022-09-03T17:04:26.119Z,95665.94
2022-09-03T17:06:45.009Z,95636.16
2022-09-03T17:08:58.446Z,95668.34
2022-09-03T17:11:13.904Z,95674.53
2022-09-03T17:13:44.192Z,95644.13
2022-09-03T17:15:52.341Z,95656.81
2022-09-03T17:18:28.233Z,95671.84
2022-09-03T17:20:49.502Z,95676.38
2022-09-03T17:23:04.865Z,95675.44
2022-09-03T17:25:21.047Z,95673.75
2022-09-03T17:27:40.780Z,95674.56
2022-09-03T17:30:04.300Z,95669.53
2022-09-03T17:32:22.539Z,95685.81
2022-09-03T17:34:50.680Z,95681.88
2022-09-03T17:37:07.158Z,95678.88
2022-09-03T17:39:25.582Z,95680.00
2022-09-03T17:41:37.341Z,95688.53
2022-09-03T17:43:50.065Z,95685.94
2022-09-03T17:45:57.820Z,95470.94
2022-09-03T17:48:17.181Z,95693.06
2022-09-03T17:50:25.420Z,95705.75
2022-09-03T17:52:36.753Z,95699.72
2022-09-03T17:54:44.101Z,95705.28
2022-09-03T17:56:52.459Z,95699.31
2022-09-03T17:59:03.939Z,95695.47
2022-09-03T18:01:16.342Z,95706.00
2022-09-03T18:03:25.173Z,95714.78
2022-09-03T18:05:35.350Z,95630.84
2022-09-03T18:07:46.149Z,95717.31
2022-09-03T18:10:00.694Z,95718.91
2022-09-03T18:12:10.654Z,95612.72
2022-09-03T18:14:23.527Z,95718.78
2022-09-03T18:16:28.946Z,95727.13
2022-09-03T18:18:33.304Z,95673.44
2022-09-03T18:21:21.477Z,95726.84
2022-09-03T18:23:48.395Z,95731.41
2022-09-03T18:26:13.156Z,95738.38
2022-09-03T18:28:37.463Z,95737.31
2022-09-03T18:30:57.738Z,95735.44
2022-09-03T18:33:17.992Z,95733.34
2022-09-03T18:35:38.337Z,95746.19
2022-09-03T18:38:00.416Z,95741.38
2022-09-03T18:40:21.111Z,95740.56
2022-09-03T18:42:51.454Z,95744.91
2022-09-03T18:45:22.836Z,95750.84
2022-09-03T18:48:05.483Z,95751.50
2022-09-03T18:50:40.077Z,95757.63
2022-09-03T18:53:09.098Z,95752.09
2022-09-03T18:55:37.670Z,95752.91
2022-09-03T18:58:09.289Z,95736.34
2022-09-03T19:00:31.898Z,95757.09
2022-09-03T19:03:03.486Z,95664.16
2022-09-03T19:05:34.843Z,95770.84
2022-09-03T19:08:03.851Z,95767.75
2022-09-03T19:10:32.030Z,95703.13
2022-09-03T19:13:08.795Z,95771.22
2022-09-03T19:15:38.489Z,95767.66
2022-09-03T19:18:19.318Z,95768.84
2022-09-03T19:20:43.943Z,95773.03
2022-09-03T19:23:04.499Z,95778.03
2022-09-03T19:25:30.808Z,95707.41
2022-09-03T19:28:01.395Z,95788.22
2022-09-03T19:30:23.994Z,95780.53
2022-09-03T19:32:55.266Z,95784.72
2022-09-03T19:35:30.965Z,95792.75
2022-09-03T19:37:56.181Z,95786.47
2022-09-03T19:40:30.400Z,95734.44
2022-09-03T19:43:05.670Z,95788.16
2022-09-03T19:45:36.172Z,95788.69
2022-09-03T19:48:07.216Z,95780.66
2022-09-03T19:50:35.503Z,95754.16
2022-09-03T19:53:06.180Z,95801.53
2022-09-03T19:55:31.599Z,95620.94
2022-09-03T19:57:51.997Z,95797.25
2022-09-03T20:00:17.927Z,95804.13
2022-09-03T20:02:53.001Z,95797.34
2022-09-03T20:05:17.739Z,95558.25
2022-09-03T20:07:40.249Z,95781.69
2022-09-03T20:10:01.928Z,95764.34
2022-09-03T20:12:10.178Z,95723.44
2022-09-03T20:14:16.347Z,95810.44
2022-09-03T20:16:26.962Z,95741.34
2022-09-03T20:18:41.344Z,95802.69
2022-09-03T20:20:52.980Z,95803.81
2022-09-03T20:23:00.584Z,95813.91
2022-09-03T20:25:20.914Z,95811.75
2022-09-03T20:27:36.387Z,95819.75
2022-09-03T20:29:57.025Z,95819.97
2022-09-03T20:32:07.772Z,95818.13
2022-09-03T20:34:23.858Z,95826.19
2022-09-03T20:36:37.403Z,95828.28
2022-09-03T20:38:57.190Z,95836.41
2022-09-03T20:41:13.910Z,95836.41
2022-09-03T20:43:34.992Z,95824.72
2022-09-03T20:45:54.034Z,95820.38
2022-09-03T20:48:09.199Z,95844.84
2022-09-03T20:50:25.602Z,95837.91
2022-09-03T20:52:45.730Z,95829.00
2022-09-03T20:54:52.575Z,95806.28
2022-09-03T20:57:08.023Z,95512.19
2022-09-03T20:59:18.477Z,95840.00
2022-09-03T21:01:29.015Z,95844.53
2022-09-03T21:03:41.705Z,95843.53
2022-09-03T21:05:55.919Z,95842.34
2022-09-03T21:08:11.205Z,95851.97
2022-09-03T21:10:24.038Z,95855.41
2022-09-03T21:12:38.136Z,95857.63
2022-09-03T21:14:47.681Z,95858.63
2022-09-03T21:17:01.800Z,95864.25
2022-09-03T21:19:11.635Z,95859.84
2022-09-03T21:21:22.865Z,95865.63
2022-09-03T21:23:29.575Z,95860.69
2022-09-03T21:25:37.938Z,95870.03
2022-09-03T21:27:46.542Z,95874.44
2022-09-03T21:29:59.998Z,95873.72
2022-09-03T21:32:10.654Z,95864.47
2022-09-03T21:34:20.298Z,95863.28
2022-09-03T21:36:30.183Z,95853.47
2022-09-03T21:38:36.791Z,95859.38
2022-09-03T21:40:47.902Z,95862.00
2022-09-03T21:42:59.592Z,95863.00
2022-09-03T21:45:12.206Z,95860.00
2022-09-03T21:47:17.124Z,95861.50
2022-09-03T21:49:28.077Z,95849.50
2022-09-03T21:51:35.035Z,95864.34
2022-09-03T21:53:45.592Z,95868.94
2022-09-03T21:56:10.784Z,95873.34
2022-09-03T21:58:25.150Z,95872.16
2022-09-03T22:00:32.554Z,95830.16
2022-09-03T22:02:36.203Z,95676.06
2022-09-03T22:04:39.000Z,95883.06
2022-09-03T22:06:51.956Z,95877.34
2022-09-03T22:09:03.907Z,95872.56
2022-09-03T22:11:13.464Z,95888.63
2022-09-03T22:13:24.823Z,95884.47
2022-09-03T22:15:29.723Z,95878.66
2022-09-03T22:17:46.141Z,95888.13
2022-09-03T22:19:48.936Z,95886.50
2022-09-03T22:21:59.691Z,95773.28
2022-09-03T22:24:19.011Z,95884.13
2022-09-03T22:26:29.073Z,95883.41
2022-09-03T22:28:40.804Z,95891.06
2022-09-03T22:30:55.392Z,95737.84
2022-09-03T22:33:07.709Z,95607.66
2022-09-03T22:35:23.294Z,95892.97
2022-09-03T22:37:42.794Z,95887.41
2022-09-03T22:39:47.973Z,95892.31
2022-09-03T22:42:16.988Z,95889.16
2022-09-03T22:44:34.716Z,95894.88
2022-09-03T22:46:49.290Z,95893.94
2022-09-03T22:49:14.958Z,95898.41
2022-09-03T22:51:21.813Z,95895.09
2022-09-03T22:53:39.890Z,95903.63
2022-09-03T22:55:49.539Z,95900.91
2022-09-03T22:57:58.597Z,95547.50
2022-09-03T23:00:05.480Z,95901.34
2022-09-03T23:02:15.292Z,95911.09
2022-09-03T23:04:23.671Z,95911.09
2022-09-03T23:06:32.856Z,95911.25
2022-09-03T23:08:40.997Z,95908.97
2022-09-03T23:11:04.117Z,95915.72
2022-09-03T23:13:15.420Z,95912.72
2022-09-03T23:15:23.019Z,95910.78
2022-09-03T23:19:40.845Z,95912.97
2022-09-03T23:21:53.243Z,95909.66
2022-09-03T23:24:00.637Z,95929.69
2022-09-03T23:26:13.530Z,95916.06
2022-09-03T23:28:24.894Z,95918.25
2022-09-03T23:30:27.892Z,95917.69
2022-09-03T23:32:33.142Z,95923.56
2022-09-03T23:34:40.726Z,95916.22
2022-09-03T23:37:32.530Z,95920.31
2022-09-03T23:39:44.113Z,95745.53
2022-09-03T23:42:01.739Z,95911.56
2022-09-03T23:44:21.838Z,95919.25
2022-09-03T23:46:31.035Z,95923.91
2022-09-03T23:48:47.113Z,95705.44
2022-09-03T23:50:59.358Z,95923.09
2022-09-03T23:53:32.046Z,95919.25
2022-09-03T23:55:47.740Z,95872.56
2022-09-03T23:58:09.086Z,95708.59
